Time;durP1;ratioP1;P1;durP2;ratioP2;P2;SDS_P1;SDS_P2;PMS_P1;PMS_P2;Temp;Humidity;BMP_temperature;BMP_pressure;BME280_temperature;BME280_humidity;BME280_pressure;Samples;Min_cycle;Max_cycle;Signal;HPM_P1;HPM_P2
2022/12/19 00:02:47;;;;;;;;;22.75;19.50;;;;;13.86;84.36;102325.00;146619;600;46020;-76
2022/12/19 00:05:49;;;;;;;;;26.00;23.25;;;;;13.85;84.15;102333.62;146618;577;46016;-77
2022/12/19 00:08:59;;;;;;;;;24.75;22.50;;;;;13.81;84.05;102344.66;146619;608;46020;-75
2022/12/19 00:12:05;;;;;;;;;27.00;24.00;;;;;13.76;84.47;102346.06;146616;574;47014;-77
2022/12/19 00:15:00;;;;;;;;;22.50;20.75;;;;;13.73;84.88;102345.88;146621;589;46010;-77
2022/12/19 00:18:02;;;;;;;;;29.00;26.75;;;;;13.78;85.42;102351.41;146616;583;46017;-77
2022/12/19 00:20:44;;;;;;;;;42.25;33.50;;;;;13.77;85.01;102360.00;146709;569;46014;-77
2022/12/19 00:23:40;;;;;;;;;27.50;24.75;;;;;13.78;84.20;102352.28;146618;576;46012;-75
2022/12/19 00:26:38;;;;;;;;;23.75;20.75;;;;;13.81;84.62;102362.91;146621;705;46021;-77
2022/12/19 00:29:32;;;;;;;;;16.00;15.00;;;;;13.81;84.47;102365.53;146616;603;46012;-73
2022/12/19 00:32:24;;;;;;;;;20.00;16.25;;;;;13.84;84.55;102363.13;146623;599;46010;-82
2022/12/19 00:35:25;;;;;;;;;17.75;14.00;;;;;13.88;82.70;102374.62;146618;617;46012;-83
2022/12/19 00:38:09;;;;;;;;;19.75;17.00;;;;;13.82;80.69;102375.13;146708;564;46012;-82
2022/12/19 00:41:19;;;;;;;;;9.50;8.00;;;;;13.82;81.79;102379.47;146621;613;46016;-82
2022/12/19 00:44:33;;;;;;;;;;;;;;;;;;;;;
2022/12/19 00:47:31;;;;;;;;;8.67;6.00;;;;;13.77;79.95;102375.63;146624;643;47016;-82
2022/12/19 00:50:26;;;;;;;;;4.67;4.67;;;;;13.14;80.36;102257.78;146629;590;46020;-81
2022/12/19 00:53:22;;;;;;;;;5.50;4.25;;;;;13.80;80.56;102384.59;146625;616;47012;-82
2022/12/19 00:56:06;;;;;;;;;6.33;5.00;;;;;13.82;78.56;102385.56;146698;566;46014;-73
2022/12/19 00:59:09;;;;;;;;;7.67;4.33;;;;;13.88;79.59;102381.56;146615;596;46016;-73
2022/12/19 01:02:01;;;;;;;;;9.67;5.00;;;;;13.93;79.75;102381.06;146621;582;46010;-73
2022/12/19 01:04:55;;;;;;;;;4.33;3.67;;;;;13.97;79.65;102388.25;146616;671;46919;-72
2022/12/19 01:08:03;;;;;;;;;6.33;5.33;;;;;14.00;79.78;102382.34;146620;609;45020;-76
2022/12/19 01:10:55;;;;;;;;;6.50;6.50;;;;;13.98;79.71;102382.22;146620;622;46013;-73
2022/12/19 01:13:53;;;;;;;;;9.00;8.25;;;;;13.98;79.59;102383.94;146617;690;47020;-73
2022/12/19 01:16:47;;;;;;;;;8.00;6.75;;;;;13.99;79.85;102388.38;146617;565;46016;-76
2022/12/19 01:19:39;;;;;;;;;6.00;6.00;;;;;13.98;80.66;102387.44;146621;564;46020;-73
2022/12/19 01:22:32;;;;;;;;;6.00;5.67;;;;;13.97;79.78;102392.59;146618;666;46016;-73
2022/12/19 01:25:24;;;;;;;;;7.33;6.00;;;;;13.92;80.17;102393.97;146621;578;46021;-74
2022/12/19 01:28:18;;;;;;;;;4.33;4.33;;;;;13.87;76.77;102396.31;146618;686;46016;-75
2022/12/19 01:31:11;;;;;;;;;4.00;4.00;;;;;13.85;75.49;102393.59;146712;569;46014;-75
2022/12/19 01:34:07;;;;;;;;;6.00;4.00;;;;;13.91;78.32;102398.31;146624;571;46016;-74
2022/12/19 01:37:02;;;;;;;;;4.33;4.00;;;;;13.94;78.39;102403.72;146630;595;46021;-73
2022/12/19 01:39:54;;;;;;;;;8.00;7.00;;;;;13.96;78.28;102399.50;146625;665;46016;-71
2022/12/19 01:42:51;;;;;;;;;14.50;10.00;;;;;13.97;77.86;102395.19;146628;699;46020;-71
2022/12/19 01:45:52;;;;;;;;;5.00;4.00;;;;;13.92;75.61;102404.41;146619;571;46918;-73
2022/12/19 01:48:49;;;;;;;;;3.00;3.00;;;;;13.77;74.71;102376.56;146713;581;45022;-75
2022/12/19 01:51:52;;;;;;;;;4.00;1.33;;;;;13.83;75.41;102397.81;146629;564;46012;-75
2022/12/19 01:54:50;;;;;;;;;1.00;1.00;;;;;13.83;75.28;102404.72;146630;647;46020;-75
2022/12/19 01:57:43;;;;;;;;;2.67;2.00;;;;;13.80;75.73;102407.13;146627;632;46014;-76
2022/12/19 02:00:45;;;;;;;;;1.33;1.00;;;;;13.83;76.09;102407.31;146634;684;46010;-77
2022/12/19 02:03:51;;;;;;;;;1.00;0.00;;;;;13.85;75.99;102406.63;146628;627;45016;-76
2022/12/19 02:06:47;;;;;;;;;2.00;2.00;;;;;13.87;77.09;102411.94;146630;569;46020;-76
2022/12/19 02:09:43;;;;;;;;;4.00;3.67;;;;;13.90;76.48;102419.09;146627;570;45017;-76
2022/12/19 02:12:43;;;;;;;;;1.00;0.33;;;;;13.88;76.66;102415.47;146631;629;46020;-74
2022/12/19 02:16:06;;;;;;;;;3.00;2.00;;;;;13.83;76.58;102420.34;146630;576;46013;-76
2022/12/19 02:19:45;;;;;;;;;2.00;2.00;;;;;13.77;77.28;102422.56;146632;615;45020;-75
2022/12/19 02:23:18;;;;;;;;;1.33;1.33;;;;;13.72;78.25;102413.56;146625;598;46017;-70
2022/12/19 02:26:59;;;;;;;;;4.33;2.00;;;;;13.73;78.15;102412.75;146628;604;46020;-70
2022/12/19 02:30:19;;;;;;;;;3.33;2.00;;;;;13.68;79.23;102402.03;146626;649;46016;-70
2022/12/19 02:33:43;;;;;;;;;3.00;2.25;;;;;13.76;79.47;102418.16;146631;633;46010;-70
2022/12/19 02:36:42;;;;;;;;;2.00;2.00;;;;;13.78;79.48;102409.66;146624;565;46917;-70
2022/12/19 02:39:51;;;;;;;;;2.67;2.00;;;;;13.79;79.42;102415.75;146630;597;46020;-71
2022/12/19 02:43:18;;;;;;;;;2.25;2.25;;;;;13.71;79.86;102404.84;146626;656;46012;-73
2022/12/19 02:46:29;;;;;;;;;3.75;3.00;;;;;13.74;80.03;102409.37;146629;671;46012;-71
2022/12/19 02:49:29;;;;;;;;;5.00;3.00;;;;;13.73;80.67;102410.16;146625;569;46016;-72
2022/12/19 02:52:52;;;;;;;;;4.00;3.25;;;;;13.66;81.09;102397.53;146626;660;46020;-72
2022/12/19 02:56:22;;;;;;;;;5.25;4.00;;;;;13.70;80.72;102409.94;146616;580;47873;-71
2022/12/19 02:59:52;;;;;;;;;4.33;3.33;;;;;13.77;80.13;102418.28;146632;569;46021;-72
2022/12/19 03:03:40;;;;;;;;;6.50;4.75;;;;;13.82;80.08;102424.69;146621;570;46016;-71
2022/12/19 03:07:10;;;;;;;;;2.67;2.33;;;;;13.84;79.40;102404.84;146632;578;46021;-72
2022/12/19 03:10:41;;;;;;;;;2.00;2.00;;;;;13.83;78.88;102405.66;146627;625;46029;-72
2022/12/19 03:13:41;;;;;;;;;1.67;1.67;;;;;13.85;77.26;102416.16;146629;645;46020;-71
2022/12/19 03:16:40;;;;;;;;;2.00;1.00;;;;;13.85;76.89;102419.66;146624;576;46916;-70
2022/12/19 03:19:41;;;;;;;;;2.00;0.67;;;;;13.88;76.52;102425.88;146631;572;46020;-69
2022/12/19 03:22:44;;;;;;;;;3.00;1.00;;;;;13.88;76.26;102426.78;146625;620;46017;-71
2022/12/19 03:25:47;;;;;;;;;0.00;0.00;;;;;13.88;76.21;102431.09;146631;614;46010;-70
2022/12/19 03:29:24;;;;;;;;;1.00;1.00;;;;;13.16;77.00;102304.78;146623;591;46016;-70
2022/12/19 03:32:28;;;;;;;;;0.67;0.00;;;;;13.88;75.40;102436.31;146632;599;46010;-69
2022/12/19 03:35:34;;;;;;;;;1.00;1.00;;;;;13.86;76.06;102436.19;146626;601;46016;-69
2022/12/19 03:38:39;;;;;;;;;0.67;0.67;;;;;13.83;75.31;102442.16;146630;596;46010;-69
2022/12/19 03:45:06;;;;;;;;;2.33;1.00;;;;;13.83;75.91;102447.37;146628;603;46020;-68
2022/12/19 03:48:29;;;;;;;;;0.00;0.00;;;;;13.78;74.75;102453.06;146625;617;46016;-68
2022/12/19 03:52:02;;;;;;;;;0.00;0.00;;;;;13.79;75.29;102457.47;146627;583;46020;-68
2022/12/19 03:55:08;;;;;;;;;0.00;0.00;;;;;13.74;75.87;102454.56;146627;587;46012;-68
2022/12/19 03:58:26;;;;;;;;;1.67;0.33;;;;;13.67;75.88;102457.56;146628;574;46020;-68
2022/12/19 04:01:29;;;;;;;;;0.00;0.00;;;;;13.60;76.64;102455.34;146626;616;46014;-70
2022/12/19 04:04:26;;;;;;;;;0.00;0.00;;;;;13.54;76.04;102468.88;146627;579;46020;-72
2022/12/19 04:07:23;;;;;;;;;0.00;0.00;;;;;13.48;76.49;102464.97;146625;571;46017;-73
2022/12/19 04:10:50;;;;;;;;;;;;;;;;;;;;;
2022/12/19 04:13:55;;;;;;;;;2.00;1.00;;;;;13.35;75.56;102476.25;146628;595;47013;-71
2022/12/19 04:17:34;;;;;;;;;1.00;1.00;;;;;13.28;77.05;102472.34;146632;579;46020;-73
2022/12/19 04:20:39;;;;;;;;;0.67;0.67;;;;;13.29;77.27;102489.78;146624;628;46016;-70
2022/12/19 04:23:44;;;;;;;;;1.00;1.00;;;;;13.28;76.13;102489.69;146632;648;46010;-73
2022/12/19 04:26:54;;;;;;;;;0.67;0.00;;;;;13.30;76.88;102501.09;146626;577;45016;-73
2022/12/19 04:29:57;;;;;;;;;0.00;0.00;;;;;13.36;76.90;102507.66;146633;697;46012;-70
2022/12/19 04:33:11;;;;;;;;;;;;;;;;;;;;;
2022/12/19 04:36:23;;;;;;;;;1.33;1.33;;;;;12.30;77.66;102298.06;146628;594;46022;-70
2022/12/19 04:39:21;;;;;;;;;0.00;0.00;;;;;13.48;77.09;102511.87;146625;566;46012;-70
2022/12/19 04:42:15;;;;;;;;;0.00;0.00;;;;;13.54;77.68;102527.91;146630;655;46020;-73
2022/12/19 04:45:14;;;;;;;;;1.00;0.00;;;;;13.49;76.64;102522.41;146624;703;46017;-72
2022/12/19 04:47:53;;;;;;;;;0.00;0.00;;;;;13.50;75.02;102532.03;146701;571;46023;-73
2022/12/19 04:50:55;;;;;;;;;;;;;;;;;;;;;
2022/12/19 04:53:51;;;;;;;;;0.33;0.33;;;;;13.56;77.58;102535.06;146624;649;46020;-74
2022/12/19 04:56:44;;;;;;;;;0.00;0.00;;;;;13.58;77.85;102530.84;146620;677;46012;-73
2022/12/19 04:59:42;;;;;;;;;1.67;0.67;;;;;13.60;77.81;102536.16;146624;570;47010;-74
2022/12/19 05:02:34;;;;;;;;;0.33;0.33;;;;;13.61;78.27;102535.34;146619;622;46016;-74
2022/12/19 05:05:30;;;;;;;;;1.67;1.67;;;;;13.62;78.60;102537.19;146622;620;46020;-74
2022/12/19 05:08:41;;;;;;;;;2.00;1.00;;;;;13.62;78.52;102537.19;146620;629;46919;-74
2022/12/19 05:11:39;;;;;;;;;2.00;2.00;;;;;13.62;78.59;102547.59;146627;574;46010;-73
2022/12/19 05:14:42;;;;;;;;;3.67;2.67;;;;;13.61;78.83;102545.78;146618;681;47012;-73
2022/12/19 05:17:35;;;;;;;;;5.67;5.00;;;;;13.58;78.49;102556.91;146624;584;46021;-73
2022/12/19 05:20:42;;;;;;;;;4.75;4.00;;;;;13.58;79.02;102556.91;146612;616;47919;-73
2022/12/19 05:23:46;;;;;;;;;8.33;7.00;;;;;13.56;78.84;102561.13;146625;570;46010;-73
2022/12/19 05:26:41;;;;;;;;;9.50;8.25;;;;;13.54;78.50;102572.22;146616;575;46024;-72
2022/12/19 05:29:41;;;;;;;;;12.25;10.00;;;;;13.47;78.03;102577.81;146622;622;46020;-71
2022/12/19 05:32:46;;;;;;;;;10.50;9.25;;;;;13.39;78.84;102580.81;146619;645;46013;-71
2022/12/19 05:35:42;;;;;;;;;8.00;8.00;;;;;13.33;78.09;102569.97;146624;630;46020;-70
2022/12/19 05:38:38;;;;;;;;;6.25;6.00;;;;;13.31;78.38;102570.66;146618;653;46012;-71
2022/12/19 05:41:35;;;;;;;;;6.67;6.00;;;;;13.35;78.87;102577.88;146624;576;46020;-70
2022/12/19 05:44:30;;;;;;;;;6.25;6.25;;;;;13.36;79.36;102575.41;146618;568;46016;-71
2022/12/19 05:47:22;;;;;;;;;8.00;5.75;;;;;13.42;78.79;102576.59;146624;648;46021;-72
2022/12/19 05:50:16;;;;;;;;;9.00;7.00;;;;;13.42;78.42;102580.09;146617;604;47014;-71
2022/12/19 05:53:17;;;;;;;;;8.00;7.25;;;;;13.44;78.07;102588.03;146620;566;46021;-70
2022/12/19 05:56:39;;;;;;;;;;;;;;;;;;;;;
2022/12/19 05:59:20;;;;;;;;;12.25;8.50;;;;;13.33;76.51;102590.81;146712;567;46012;-70
2022/12/19 06:02:19;;;;;;;;;8.50;6.00;;;;;13.33;78.04;102595.09;146627;716;46012;-72
2022/12/19 06:05:43;;;;;;;;;4.00;4.00;;;;;13.28;78.61;102588.69;146631;576;46020;-71
2022/12/19 06:08:45;;;;;;;;;5.50;5.50;;;;;12.12;78.29;102394.81;146625;694;46014;-72
2022/12/19 06:11:45;;;;;;;;;4.75;4.25;;;;;13.31;78.55;102605.41;146628;721;46020;-73
2022/12/19 06:14:41;;;;;;;;;6.75;5.75;;;;;13.32;79.34;102612.44;146626;564;46014;-71
2022/12/19 06:17:36;;;;;;;;;5.33;4.33;;;;;13.35;79.43;102617.84;146628;622;47010;-72
2022/12/19 06:20:49;;;;;;;;;9.00;8.00;;;;;13.39;79.77;102618.97;146625;636;46017;-71
2022/12/19 06:23:53;;;;;;;;;5.50;5.25;;;;;13.35;77.14;102615.25;146632;586;45020;-71
2022/12/19 06:26:52;;;;;;;;;2.33;2.00;;;;;13.39;73.94;102632.94;146626;569;47016;-71
2022/12/19 06:29:48;;;;;;;;;4.00;2.00;;;;;13.39;74.06;102640.75;146629;585;46010;-68
2022/12/19 06:32:43;;;;;;;;;2.33;2.00;;;;;13.39;73.21;102634.59;146624;570;46012;-72
2022/12/19 06:35:44;;;;;;;;;2.00;2.00;;;;;13.38;74.04;102648.44;146629;608;47010;-73
2022/12/19 06:38:41;;;;;;;;;5.25;2.00;;;;;13.37;73.03;102650.16;146623;575;46016;-72
2022/12/19 06:44:44;;;;;;;;;5.67;3.67;;;;;13.43;74.01;102648.75;146623;581;46016;-72
2022/12/19 06:47:49;;;;;;;;;6.25;6.25;;;;;13.49;74.32;102639.69;146626;570;46020;-73
2022/12/19 06:50:43;;;;;;;;;6.00;5.25;;;;;13.54;74.44;102653.03;146622;625;46017;-73
2022/12/19 06:53:41;;;;;;;;;6.75;6.25;;;;;13.59;74.61;102652.56;146630;701;46010;-71
2022/12/19 06:56:46;;;;;;;;;2.25;2.25;;;;;13.61;73.75;102650.03;146622;594;46015;-70
2022/12/19 06:59:52;;;;;;;;;2.00;2.00;;;;;13.65;72.95;102657.28;146650;602;46012;-70
2022/12/19 07:03:01;;;;;;;;;3.00;2.00;;;;;13.66;73.74;102666.00;146646;580;45016;-70
2022/12/19 07:05:56;;;;;;;;;1.67;1.67;;;;;13.66;72.31;102674.72;146646;591;46012;-70
2022/12/19 07:08:49;;;;;;;;;1.33;0.33;;;;;13.67;72.31;102675.62;146647;670;45016;-72
2022/12/19 07:11:45;;;;;;;;;3.25;2.25;;;;;13.68;71.36;102680.06;146650;610;46011;-72
2022/12/19 07:14:47;;;;;;;;;2.00;2.00;;;;;13.57;72.26;102668.88;146646;611;45034;-72
2022/12/19 07:17:45;;;;;;;;;3.67;3.33;;;;;13.66;71.53;102689.47;146651;570;45020;-71
2022/12/19 07:20:49;;;;;;;;;4.00;2.00;;;;;13.66;72.09;102686.88;146650;564;46017;-71
2022/12/19 07:23:42;;;;;;;;;1.33;0.00;;;;;13.69;71.58;102689.69;146652;611;45020;-71
2022/12/19 07:26:48;;;;;;;;;4.75;2.75;;;;;13.73;71.54;102699.53;146648;608;45017;-71
2022/12/19 07:29:44;;;;;;;;;5.67;2.67;;;;;13.76;71.84;102692.81;146652;565;45020;-73
2022/12/19 07:32:35;;;;;;;;;3.33;3.33;;;;;13.80;72.81;102691.31;146649;584;46915;-72
2022/12/19 07:35:33;;;;;;;;;7.67;3.33;;;;;13.84;72.45;102685.53;146653;599;46011;-71
2022/12/19 07:38:28;;;;;;;;;7.00;6.00;;;;;13.87;72.28;102701.41;146642;588;46915;-70
2022/12/19 07:41:39;;;;;;;;;5.00;5.00;;;;;13.89;71.91;102697.19;146650;615;45020;-77
2022/12/19 07:44:33;;;;;;;;;9.75;8.00;;;;;13.92;72.22;102697.37;146644;573;45012;-71
2022/12/19 07:47:26;;;;;;;;;2.00;2.00;;;;;13.94;70.43;102708.84;146651;582;45020;-79
2022/12/19 07:50:34;;;;;;;;;;;;;;;;;;;;;
2022/12/19 07:53:21;;;;;;;;;2.00;2.00;;;;;13.94;69.56;102716.66;146710;569;46012;-79
2022/12/19 07:56:25;;;;;;;;;4.00;3.67;;;;;13.95;70.71;102726.28;146628;631;46014;-76
2022/12/19 07:59:19;;;;;;;;;2.00;2.00;;;;;13.95;70.14;102726.28;146630;594;46021;-80
2022/12/19 08:02:25;;;;;;;;;;;;;;;;;;;;;
2022/12/19 08:05:29;;;;;;;;;0.67;0.67;;;;;14.00;71.42;102724.03;146630;573;46020;-75
2022/12/19 08:08:29;;;;;;;;;4.00;3.00;;;;;14.07;70.77;102723.62;146628;575;46014;-78
2022/12/19 08:11:28;;;;;;;;;3.67;3.33;;;;;14.12;69.25;102726.56;146633;659;45029;-78
2022/12/19 08:14:33;;;;;;;;;5.67;3.33;;;;;14.17;71.21;102731.28;146624;596;46016;-78
2022/12/19 08:17:29;;;;;;;;;5.67;4.00;;;;;14.23;70.49;102722.97;146631;611;46010;-76
2022/12/19 08:20:24;;;;;;;;;5.67;4.00;;;;;14.28;71.03;102735.53;146626;585;46016;-79
2022/12/19 08:23:27;;;;;;;;;2.00;1.33;;;;;14.32;69.17;102728.81;146630;626;46010;-78
2022/12/19 08:26:32;;;;;;;;;4.33;3.00;;;;;14.36;69.51;102735.16;146624;598;46016;-77
2022/12/19 08:29:13;;;;;;;;;8.00;7.00;;;;;14.37;66.24;102739.59;146701;585;46022;-78
2022/12/19 08:32:05;;;;;;;;;4.00;3.00;;;;;14.39;68.10;102743.19;146616;570;46017;-77
2022/12/19 08:35:07;;;;;;;;;5.00;5.00;;;;;14.36;68.51;102743.91;146622;587;46020;-77
2022/12/19 08:38:01;;;;;;;;;6.67;5.00;;;;;14.44;69.40;102749.63;146618;595;46916;-77
2022/12/19 08:41:00;;;;;;;;;7.00;6.67;;;;;13.30;69.54;102543.69;146621;583;48012;-78
2022/12/19 08:43:59;;;;;;;;;4.00;3.00;;;;;14.49;68.72;102748.25;146617;565;46016;-78
2022/12/19 08:46:38;;;;;;;;;4.67;4.00;;;;;14.47;67.71;102745.53;146701;565;45022;-77
2022/12/19 08:49:42;;;;;;;;;10.33;7.67;;;;;14.36;69.83;102719.50;146619;629;46016;-77
2022/12/19 08:52:39;;;;;;;;;5.00;4.00;;;;;14.52;68.99;102740.66;146617;595;47010;-77
2022/12/19 08:55:45;;;;;;;;;;;;;;;;;;;;;
2022/12/19 08:59:01;;;;;;;;;6.33;4.33;;;;;14.46;70.90;102740.22;146620;576;46010;-77
2022/12/19 09:02:01;;;;;;;;;7.67;7.33;;;;;14.50;70.76;102730.06;146612;691;47014;-77
2022/12/19 09:05:04;;;;;;;;;7.00;6.00;;;;;14.57;71.59;102733.12;146616;589;46020;-77
2022/12/19 09:07:57;;;;;;;;;9.75;7.00;;;;;14.59;70.77;102724.59;146613;651;46012;-78
2022/12/19 09:10:51;;;;;;;;;3.67;3.00;;;;;14.63;69.97;102724.00;146617;588;47010;-77
2022/12/19 09:13:47;;;;;;;;;3.00;2.33;;;;;14.64;70.32;102727.50;146614;590;47012;-77
2022/12/19 09:16:42;;;;;;;;;9.50;8.25;;;;;14.68;70.09;102729.53;146615;591;46020;-73
2022/12/19 09:19:37;;;;;;;;;13.00;6.25;;;;;14.72;70.45;102723.69;146608;586;47012;-77
2022/12/19 09:22:52;;;;;;;;;7.25;6.75;;;;;14.77;70.57;102715.38;146617;675;46021;-77
2022/12/19 09:26:02;;;;;;;;;8.50;6.00;;;;;14.78;69.72;102696.28;146611;604;46016;-79
2022/12/19 09:29:06;;;;;;;;;4.00;3.00;;;;;14.78;68.12;102706.72;146619;687;46021;-77
2022/12/19 09:32:02;;;;;;;;;4.75;4.00;;;;;14.79;68.59;102708.53;146613;579;46016;-77
2022/12/19 09:34:59;;;;;;;;;6.25;5.00;;;;;14.78;68.31;102705.81;146614;619;46010;-76
2022/12/19 09:37:59;;;;;;;;;7.50;5.00;;;;;14.75;69.71;102714.34;146612;695;46016;-77
2022/12/19 09:41:32;;;;;;;;;8.50;7.50;;;;;14.73;71.18;102710.72;146620;710;46020;-78
2022/12/19 09:45:05;;;;;;;;;6.33;6.33;;;;;14.74;70.75;102704.72;146617;625;46017;-77
2022/12/19 09:48:05;;;;;;;;;6.67;5.67;;;;;14.69;68.85;102705.22;146619;644;46012;-77
2022/12/19 09:51:38;;;;;;;;;8.00;7.00;;;;;14.51;70.70;102694.47;146612;692;46017;-77
2022/12/19 09:55:22;;;;;;;;;13.25;10.00;;;;;13.28;71.51;102505.31;146613;699;47010;-74
2022/12/19 09:58:40;;;;;;;;;4.25;4.25;;;;;14.44;70.17;102702.66;146603;564;47012;-77
2022/12/19 10:02:02;;;;;;;;;8.00;5.50;;;;;14.32;70.08;102701.00;146616;682;47010;-76
2022/12/19 10:05:20;;;;;;;;;6.67;5.00;;;;;14.21;70.67;102699.41;146612;588;46016;-74
2022/12/19 10:08:37;;;;;;;;;4.33;4.00;;;;;13.97;71.57;102671.63;146617;637;47010;-78
2022/12/19 10:12:19;;;;;;;;;6.00;4.00;;;;;14.05;71.29;102694.84;146612;584;46016;-74
2022/12/19 10:15:45;;;;;;;;;5.33;5.33;;;;;13.95;69.75;102694.09;146619;589;46020;-76
2022/12/19 10:19:19;;;;;;;;;8.67;7.00;;;;;13.85;70.40;102690.84;146614;664;46035;-77
2022/12/19 10:22:56;;;;;;;;;7.25;6.25;;;;;13.80;72.38;102688.72;146615;583;47010;-76
2022/12/19 10:26:16;;;;;;;;;9.50;5.75;;;;;13.75;70.96;102691.03;146610;569;47012;-76
2022/12/19 10:29:30;;;;;;;;;8.00;8.00;;;;;13.68;70.35;102680.97;146714;564;45050;-76
2022/12/19 10:33:16;;;;;;;;;;;;;;;;;;;;;
2022/12/19 10:36:14;;;;;;;;;13.25;10.00;;;;;13.63;71.31;102695.38;146629;569;46023;-75
2022/12/19 10:39:38;;;;;;;;;16.75;14.75;;;;;13.64;71.45;102694.56;146617;593;46016;-76
2022/12/19 10:43:02;;;;;;;;;16.25;13.75;;;;;13.62;71.20;102694.47;146622;571;46021;-75
2022/12/19 10:46:11;;;;;;;;;19.50;15.00;;;;;13.61;70.50;102696.97;146619;636;46014;-75
2022/12/19 10:49:15;;;;;;;;;;;;;;;;;;;;;
2022/12/19 10:52:15;;;;;;;;;12.75;10.50;;;;;13.63;71.76;102696.28;146619;592;46016;-75
2022/12/19 10:55:39;;;;;;;;;9.67;5.00;;;;;13.66;72.22;102692.97;146624;661;46020;-76
2022/12/19 10:58:46;;;;;;;;;5.67;4.67;;;;;13.66;71.21;102692.97;146627;601;46916;-76
2022/12/19 11:01:53;;;;;;;;;4.00;3.33;;;;;13.67;69.88;102692.16;146634;574;46010;-77
2022/12/19 11:04:46;;;;;;;;;7.00;5.00;;;;;13.66;70.62;102685.16;146618;662;47916;-76
2022/12/19 11:07:49;;;;;;;;;22.50;20.75;;;;;13.62;71.35;102683.16;146631;620;46021;-75
2022/12/19 11:10:58;;;;;;;;;7.75;7.25;;;;;13.67;72.55;102691.28;146622;666;46012;-76
2022/12/19 11:13:53;;;;;;;;;16.75;13.50;;;;;13.69;71.29;102690.59;146628;600;46021;-75
2022/12/19 11:16:46;;;;;;;;;13.75;12.50;;;;;13.72;71.24;102690.81;146618;605;46012;-76
2022/12/19 11:19:44;;;;;;;;;9.00;6.00;;;;;13.74;71.85;102681.41;146623;589;46012;-75
2022/12/19 11:22:40;;;;;;;;;3.00;3.00;;;;;13.75;70.74;102679.69;146627;647;46016;-75
2022/12/19 11:25:56;;;;;;;;;11.75;9.00;;;;;13.77;71.72;102684.22;146629;582;46020;-75
2022/12/19 11:28:51;;;;;;;;;6.00;6.00;;;;;13.77;71.12;102686.81;146620;582;46017;-75
2022/12/19 11:31:55;;;;;;;;;9.75;9.50;;;;;13.78;72.12;102699.06;146623;681;46020;-75
2022/12/19 11:35:05;;;;;;;;;8.25;6.50;;;;;13.78;71.55;102692.94;146617;625;46017;-76
2022/12/19 11:38:09;;;;;;;;;7.75;7.75;;;;;13.77;72.06;102683.28;146626;657;45020;-75
2022/12/19 11:41:24;;;;;;;;;11.00;10.00;;;;;13.78;71.84;102682.50;146620;591;46917;-76
2022/12/19 11:44:56;;;;;;;;;18.75;16.50;;;;;13.79;72.27;102685.22;146621;584;46010;-76
2022/12/19 11:48:32;;;;;;;;;16.25;15.25;;;;;13.80;72.21;102684.44;146618;582;45018;-76
2022/12/19 11:51:39;;;;;;;;;31.00;27.50;;;;;13.81;71.50;102678.41;146713;570;45022;-75
2022/12/19 11:55:04;;;;;;;;;28.25;25.00;;;;;13.82;71.32;102676.69;146622;595;46012;-76
2022/12/19 11:58:02;;;;;;;;;44.25;32.25;;;;;13.85;72.03;102676.91;146618;603;46012;-75
2022/12/19 12:01:23;;;;;;;;;20.25;15.75;;;;;13.86;72.37;102674.44;146613;574;46013;-75
2022/12/19 12:04:46;;;;;;;;;13.00;12.25;;;;;13.88;73.05;102671.91;146618;608;46020;-75
2022/12/19 12:07:44;;;;;;;;;11.50;8.00;;;;;13.89;71.59;102672.81;146613;587;46017;-75
2022/12/19 12:10:49;;;;;;;;;32.25;29.25;;;;;13.92;71.84;102673.03;146626;587;46010;-77
2022/12/19 12:14:03;;;;;;;;;21.75;19.50;;;;;13.93;72.31;102667.94;146613;626;47016;-75
2022/12/19 12:17:20;;;;;;;;;21.75;19.50;;;;;13.93;71.59;102654.00;146621;569;46029;-76
2022/12/19 12:20:55;;;;;;;;;15.50;14.75;;;;;13.94;72.33;102659.28;146608;751;46016;-75
2022/12/19 12:24:14;;;;;;;;;12.25;11.25;;;;;13.92;69.34;102657.37;146701;567;46022;-76
2022/12/19 12:27:43;;;;;;;;;9.25;7.00;;;;;13.94;71.20;102661.91;146613;572;46015;-75
2022/12/19 12:31:20;;;;;;;;;11.00;9.00;;;;;13.92;71.83;102671.31;146617;641;48021;-75
2022/12/19 12:34:57;;;;;;;;;7.25;7.00;;;;;13.89;71.74;102675.41;146611;586;46016;-75
2022/12/19 12:38:41;;;;;;;;;21.25;20.25;;;;;13.74;72.24;102657.94;146619;589;46020;-75
2022/12/19 12:42:23;;;;;;;;;4.75;4.50;;;;;13.68;71.60;102643.56;146608;640;46016;-74
2022/12/19 12:45:51;;;;;;;;;;;;;;;;;;;;;
2022/12/19 12:49:38;;;;;;;;;11.50;10.75;;;;;13.82;71.72;102684.53;146611;632;46016;-75
2022/12/19 12:52:46;;;;;;;;;18.00;16.00;;;;;13.79;70.76;102680.00;146610;654;46020;-74
2022/12/19 12:55:53;;;;;;;;;16.00;12.50;;;;;13.77;70.23;102684.22;146605;690;46579;-75
2022/12/19 12:59:39;;;;;;;;;11.00;10.50;;;;;13.63;71.30;102664.09;146611;603;46010;-75
2022/12/19 13:02:35;;;;;;;;;32.00;29.00;;;;;13.73;70.32;102694.31;146608;643;45016;-75
2022/12/19 13:05:55;;;;;;;;;13.25;11.75;;;;;13.70;70.08;102694.09;146609;609;46021;-75
2022/12/19 13:09:02;;;;;;;;;15.00;13.00;;;;;13.67;70.87;102700.00;146607;593;47016;-76
2022/12/19 13:15:40;;;;;;;;;37.00;27.50;;;;;13.65;70.83;102696.41;146609;622;46016;-75
2022/12/19 13:18:40;;;;;;;;;36.50;32.00;;;;;13.63;69.99;102693.66;146611;623;46020;-75
2022/12/19 13:22:15;;;;;;;;;15.25;12.50;;;;;13.56;71.54;102680.09;146607;564;46016;-75
2022/12/19 13:25:49;;;;;;;;;20.25;18.00;;;;;13.52;71.95;102675.47;146610;571;46012;-75
2022/12/19 13:28:44;;;;;;;;;12.00;10.75;;;;;13.58;69.61;102694.13;146606;598;46918;-75
2022/12/19 13:31:44;;;;;;;;;7.75;7.75;;;;;13.53;69.88;102693.81;146611;715;46020;-75
2022/12/19 13:34:40;;;;;;;;;15.50;12.25;;;;;13.51;70.00;102694.50;146612;601;46012;-75
2022/12/19 13:38:15;;;;;;;;;9.00;8.00;;;;;13.50;71.07;102701.44;146611;646;46010;-75
2022/12/19 13:43:44;;;;;;;;;11.75;10.00;;;;;13.50;69.56;102697.91;146614;610;46012;-76
2022/12/19 13:44:25;;;;;;;;;18.50;15.25;;;;;13.49;70.12;102702.22;146610;604;46020;-75
2022/12/19 13:47:27;;;;;;;;;;;;;;;;;;;;;
2022/12/19 13:50:41;;;;;;;;;8.25;6.75;;;;;13.38;70.68;102682.31;146616;588;46021;-75
2022/12/19 13:53:33;;;;;;;;;9.50;8.00;;;;;13.50;70.41;102697.91;146614;627;46914;-75
2022/12/19 13:56:26;;;;;;;;;11.00;9.00;;;;;13.52;70.51;102707.66;146616;592;46020;-75
2022/12/19 13:59:24;;;;;;;;;20.50;16.00;;;;;13.53;70.44;102708.56;146612;660;46017;-75
2022/12/19 14:02:35;;;;;;;;;23.50;17.75;;;;;12.55;70.98;102550.44;146611;674;46020;-76
2022/12/19 14:05:35;;;;;;;;;20.75;15.75;;;;;13.50;71.29;102714.47;146608;602;46013;-75
2022/12/19 14:08:32;;;;;;;;;48.75;40.00;;;;;13.51;70.96;102716.25;146610;626;46020;-75
2022/12/19 14:11:29;;;;;;;;;53.25;42.25;;;;;13.50;70.64;102706.62;146605;615;46029;-75
2022/12/19 14:17:33;;;;;;;;;42.50;33.50;;;;;13.47;71.32;102710.72;146607;563;46915;-75
2022/12/19 14:20:29;;;;;;;;;41.00;32.50;;;;;13.46;71.61;102712.44;146612;627;46021;-75
2022/12/19 14:23:21;;;;;;;;;32.75;30.00;;;;;13.46;71.56;102719.31;146607;616;46016;-76
2022/12/19 14:26:42;;;;;;;;;44.00;35.00;;;;;13.46;71.92;102725.47;146611;649;46020;-77
2022/12/19 14:29:46;;;;;;;;;52.25;42.00;;;;;13.43;71.10;102732.13;146603;716;47016;-74
2022/12/19 14:32:41;;;;;;;;;65.25;50.50;;;;;13.40;70.92;102732.84;146608;565;46010;-78
2022/12/19 14:35:42;;;;;;;;;48.75;39.00;;;;;13.36;70.91;102736.94;146605;628;47012;-77
2022/12/19 14:38:36;;;;;;;;;51.25;40.50;;;;;13.35;70.84;102736.81;146606;604;47010;-77
2022/12/19 14:45:01;;;;;;;;;40.75;33.50;;;;;13.27;70.72;102738.87;146610;592;46020;-77
2022/12/19 14:47:54;;;;;;;;;24.25;22.25;;;;;13.23;70.83;102735.88;146606;569;46014;-78
2022/12/19 14:50:54;;;;;;;;;27.25;23.00;;;;;13.19;71.03;102734.78;146611;618;46021;-77
2022/12/19 14:54:34;;;;;;;;;18.50;14.25;;;;;13.15;71.54;102737.94;146607;570;46012;-78
2022/12/19 14:57:39;;;;;;;;;26.75;25.00;;;;;13.11;70.51;102733.28;146609;612;46021;-77